Axton, Virginia
Current Conditions -  °F | °C
As of 9:55 AM on Wednesday 26 Nov 2014 (Local Time) from KMTV Reporting Station
Light Rain Light Rain  
Wind Chill: 34°   Ceiling: 800
Heat Index: 40°   Visibility: 10mi
Dew Point: 40°   Wind: 8mph
Humidity: 100%   Direction: 350°N
Pressure: 30.03"   Gusts: NA
Location:  36.66°N, 79.71°W
Report Text: KMTV 261455Z AUTO 35007KT 10SM -RA OVC008 04/04 A3003 RMK AO2 P0007 60026 T00430043
Loading
Personal Weather Stations






























Interactive Weather Map New forecast layout! Learn more

10-Day Weather Forecast

Advertisements
Track Severe Weather on mobile